Etusivu
METAR-TAF:

METAR-TAF

Lentoasemat :

Cienfuegos, Kuuba

Leveyspiiri: 22-09N, Pituuspiiri: 080-24W, korkeus merenpinnasta: 39 m

Tämänhetkinen sää

Tämä raportti tehtiin 44 minuuttia sitten, kello 11.59 UTC
Tuuli 5 kn pohjoisesta
Lämpötila 21°C
Kosteus 100%
Ilmanpaine 1016 hPa

METAR: MUCF 161159Z AUTO 36005KT 21/21 Q1016

Aika: 07:43 (12:43 UTC)

Sääennuste

Tämä raportti tehtiin 1 tunti ja 43 minuuttia sitten, kello 11.00 UTC
Ennuste voimassa 16. päivästä klo 12 UTC - 16. päivään klo 24 UTC
Tuuli 3 kn eri suunnista
Näkyvyys: 9000 m
Hajanaisia pilviä 2000 ft:n korkeudessa
Tulossa
16. päivästä klo 19 UTC - 16. päivään klo 21 UTC
Tuuli 8 kn pohjoisesta

TAF: MUCF 161100Z 1612/1624 VRB03KT 9000 SCT020 BECMG 1619/1621 01008KT

Säähavainnot ja -ennusteet yli 4000 lentoasemalta (METAR- ja TAF-raportit).

Käytössä olevat sääasemat on merkitty karttaan keltaisilla ja punaisilla pisteillä.

Aseta hiiri pisteen päälle nähdäksesi sääaseman nimen.

Klikkaa sitten nähdäksesi säähavainnot ja -ennusteet.

Kartan vaihtaminen: klikkaa mustalla rastilla varustettuja vihreitä pisteitä, niin voit zoomata sisään; viivalla varustettua vihreää pistettä, niin voit zoomata ulos tai vihreitä nuolia, niin pääset viereisille kartoille.


METAR-TAF: